createdAt,value
2018-08-31T00:01:09.316Z,14.30
2018-08-31T00:04:49.580Z,14.28
2018-08-31T00:07:30.256Z,14.24
2018-08-31T00:12:12.421Z,14.18
2018-08-31T00:14:39.785Z,14.12
2018-08-31T00:17:06.979Z,14.04
2018-08-31T00:19:34.256Z,13.99
2018-08-31T00:22:01.572Z,13.96
2018-08-31T00:24:40.131Z,13.92
2018-08-31T00:27:18.855Z,13.81
2018-08-31T00:29:57.817Z,13.81
2018-08-31T00:33:01.619Z,13.68
2018-08-31T00:35:40.493Z,13.62
2018-08-31T00:39:23.705Z,13.56
2018-08-31T00:42:04.735Z,13.53
2018-08-31T00:45:37.588Z,13.47
2018-08-31T00:48:05.492Z,13.38
2018-08-31T00:50:33.086Z,13.37
2018-08-31T00:53:00.859Z,13.38
2018-08-31T00:55:28.296Z,13.30
2018-08-31T00:57:55.520Z,13.32
2018-08-31T01:00:22.725Z,13.22
2018-08-31T01:02:49.931Z,13.25
2018-08-31T01:05:17.581Z,13.14
2018-08-31T01:07:44.919Z,13.17
2018-08-31T01:10:12.383Z,13.13
2018-08-31T01:12:39.909Z,13.08
2018-08-31T01:15:07.691Z,13.10
2018-08-31T01:17:35.008Z,13.01
2018-08-31T01:20:02.190Z,13.07
2018-08-31T01:22:29.388Z,12.97
2018-08-31T01:24:56.631Z,12.91
2018-08-31T01:27:23.822Z,12.92
2018-08-31T01:29:51.086Z,12.91
2018-08-31T01:32:18.445Z,12.88
2018-08-31T01:34:45.581Z,12.88
2018-08-31T01:37:12.814Z,12.86
2018-08-31T01:39:40.434Z,12.91
2018-08-31T01:42:07.796Z,12.88
2018-08-31T01:44:35.020Z,12.88
2018-08-31T01:47:02.564Z,12.80
2018-08-31T01:49:29.745Z,12.91
2018-08-31T01:51:56.965Z,12.83
2018-08-31T01:54:24.271Z,12.78
2018-08-31T01:56:51.789Z,12.79
2018-08-31T01:59:19.117Z,12.75
2018-08-31T02:01:46.292Z,12.70
2018-08-31T02:04:13.443Z,12.74
2018-08-31T02:06:41.514Z,12.68
2018-08-31T02:09:14.528Z,12.65
2018-08-31T02:11:41.840Z,12.63
2018-08-31T02:14:09.095Z,12.69
2018-08-31T02:16:36.468Z,12.65
2018-08-31T02:19:03.916Z,12.56
2018-08-31T02:21:36.781Z,12.52
2018-08-31T02:24:04.089Z,12.57
2018-08-31T02:26:31.232Z,12.45
2018-08-31T02:28:58.494Z,12.48
2018-08-31T02:31:25.739Z,12.37
2018-08-31T02:33:53.665Z,12.35
2018-08-31T02:36:20.888Z,12.28
2018-08-31T02:38:48.019Z,12.26
2018-08-31T02:41:15.671Z,12.20
2018-08-31T02:43:43.698Z,12.19
2018-08-31T02:46:10.992Z,12.13
2018-08-31T02:48:38.216Z,12.11
2018-08-31T02:51:05.561Z,12.00
2018-08-31T02:53:32.847Z,11.98
2018-08-31T02:56:01.025Z,11.94
2018-08-31T02:58:28.229Z,11.93
2018-08-31T03:00:55.476Z,11.92
2018-08-31T03:03:22.825Z,11.84
2018-08-31T03:05:50.189Z,11.85
2018-08-31T03:08:17.475Z,11.75
2018-08-31T03:10:45.053Z,11.70
2018-08-31T03:13:12.254Z,11.64
2018-08-31T03:15:39.424Z,11.62
2018-08-31T03:18:06.616Z,11.62
2018-08-31T03:20:33.924Z,11.60
2018-08-31T03:23:01.102Z,11.61
2018-08-31T03:25:28.796Z,11.62
2018-08-31T03:27:58.430Z,11.60
2018-08-31T03:30:25.631Z,11.65
2018-08-31T03:32:53.029Z,11.59
2018-08-31T03:35:20.201Z,11.65
2018-08-31T03:37:47.413Z,11.56
2018-08-31T03:40:15.629Z,11.53
2018-08-31T03:42:42.812Z,11.51
2018-08-31T03:45:10.071Z,11.47
2018-08-31T03:47:37.524Z,11.40
2018-08-31T03:50:05.001Z,11.35
2018-08-31T03:52:32.205Z,11.37
2018-08-31T03:54:59.445Z,11.33
2018-08-31T03:57:26.917Z,11.44
2018-08-31T03:59:54.120Z,11.45
2018-08-31T04:02:21.312Z,11.44
2018-08-31T04:04:48.530Z,11.40
2018-08-31T04:07:15.773Z,11.35
2018-08-31T04:09:42.975Z,11.34
2018-08-31T04:12:10.165Z,11.36
2018-08-31T04:14:38.100Z,11.31
2018-08-31T04:17:05.887Z,11.37
2018-08-31T04:19:33.132Z,11.28
2018-08-31T04:22:00.750Z,11.34
2018-08-31T04:24:27.992Z,11.29
2018-08-31T04:26:55.376Z,11.27
2018-08-31T04:29:22.634Z,11.39
2018-08-31T04:31:49.903Z,11.29
2018-08-31T04:34:17.576Z,11.40
2018-08-31T04:36:44.879Z,11.32
2018-08-31T04:39:13.088Z,11.32
2018-08-31T04:41:42.001Z,11.25
2018-08-31T04:44:09.681Z,11.29
2018-08-31T04:46:37.265Z,11.32
2018-08-31T04:49:04.784Z,11.28
2018-08-31T04:51:32.329Z,11.39
2018-08-31T04:53:59.806Z,11.33
2018-08-31T04:56:27.498Z,11.32
2018-08-31T04:58:54.928Z,11.37
2018-08-31T05:01:22.335Z,11.33
2018-08-31T05:03:49.712Z,11.36
2018-08-31T05:06:17.065Z,11.40
2018-08-31T05:08:45.333Z,11.48
2018-08-31T05:11:12.832Z,11.51
2018-08-31T05:13:40.552Z,11.54
2018-08-31T05:16:07.775Z,11.56
2018-08-31T05:18:35.193Z,11.61
2018-08-31T05:21:05.875Z,11.74
2018-08-31T05:23:33.095Z,11.70
2018-08-31T05:26:00.349Z,11.83
2018-08-31T05:28:27.537Z,11.87
2018-08-31T05:30:55.393Z,11.89
2018-08-31T05:33:22.593Z,12.07
2018-08-31T05:35:50.728Z,12.10
2018-08-31T05:38:17.939Z,12.16
2018-08-31T05:40:45.133Z,12.17
2018-08-31T05:43:12.338Z,12.15
2018-08-31T05:45:39.492Z,12.27
2018-08-31T05:48:06.800Z,12.33
2018-08-31T05:50:33.990Z,12.46
2018-08-31T05:53:01.212Z,12.48
2018-08-31T05:55:28.473Z,12.61
2018-08-31T05:57:55.601Z,12.62
2018-08-31T06:00:22.940Z,12.67
2018-08-31T06:02:50.153Z,12.70
2018-08-31T06:05:17.283Z,12.72
2018-08-31T06:07:44.690Z,12.57
2018-08-31T06:10:12.133Z,12.59
2018-08-31T06:12:39.433Z,12.67
2018-08-31T06:15:06.660Z,12.72
2018-08-31T06:17:33.890Z,12.83
2018-08-31T06:20:01.105Z,13.02
2018-08-31T06:22:28.204Z,13.18
2018-08-31T06:24:55.516Z,13.25
2018-08-31T06:27:23.278Z,13.39
2018-08-31T06:29:50.783Z,13.46
2018-08-31T06:32:18.012Z,13.65
2018-08-31T06:34:45.316Z,13.84
2018-08-31T06:37:12.537Z,14.06
2018-08-31T06:39:39.884Z,14.09
2018-08-31T06:42:07.015Z,14.17
2018-08-31T06:44:34.541Z,14.40
2018-08-31T06:47:01.774Z,14.47
2018-08-31T06:49:29.231Z,14.43
2018-08-31T06:51:56.411Z,14.61
2018-08-31T06:56:53.289Z,14.57
2018-08-31T06:59:20.540Z,14.56
2018-08-31T07:01:47.838Z,14.46
2018-08-31T07:04:15.113Z,14.59
2018-08-31T07:06:42.592Z,14.73
2018-08-31T07:09:10.880Z,14.78
2018-08-31T07:11:38.079Z,14.84
2018-08-31T07:14:05.643Z,14.99
2018-08-31T07:16:32.785Z,14.97
2018-08-31T07:19:01.037Z,14.88
2018-08-31T07:21:28.211Z,15.00
2018-08-31T07:23:55.986Z,15.12
2018-08-31T07:26:23.467Z,15.09
2018-08-31T07:28:50.807Z,15.14
2018-08-31T07:31:17.959Z,15.27
2018-08-31T07:33:45.159Z,15.40
2018-08-31T07:36:12.962Z,15.64
2018-08-31T07:38:40.284Z,15.50
2018-08-31T07:41:07.446Z,15.39
2018-08-31T07:43:34.585Z,15.42
2018-08-31T07:46:01.746Z,15.40
2018-08-31T07:48:28.936Z,15.59
2018-08-31T07:50:56.280Z,15.64
2018-08-31T07:53:25.440Z,15.70
2018-08-31T07:55:52.681Z,15.66
2018-08-31T07:58:19.950Z,15.93
2018-08-31T08:00:47.245Z,15.79
2018-08-31T08:03:14.705Z,15.80
2018-08-31T08:05:41.827Z,15.80
2018-08-31T08:08:08.968Z,15.85
2018-08-31T08:10:36.264Z,15.70
2018-08-31T08:13:03.426Z,15.78
2018-08-31T08:15:37.666Z,15.95
2018-08-31T08:18:04.788Z,16.12
2018-08-31T08:20:31.900Z,16.37
2018-08-31T08:22:59.108Z,16.58
2018-08-31T08:25:26.260Z,16.66
2018-08-31T08:27:53.545Z,16.91
2018-08-31T08:30:20.731Z,17.11
2018-08-31T08:32:52.356Z,17.18
2018-08-31T08:35:19.824Z,17.20
2018-08-31T08:37:47.031Z,17.39
2018-08-31T08:40:14.351Z,17.84
2018-08-31T08:42:41.565Z,17.87
2018-08-31T08:45:08.717Z,17.94
2018-08-31T08:47:35.976Z,18.09
2018-08-31T08:50:03.157Z,18.19
2018-08-31T08:52:30.364Z,18.15
2018-08-31T08:54:57.628Z,17.86
2018-08-31T08:57:24.809Z,17.98
2018-08-31T08:59:52.186Z,17.94
2018-08-31T09:02:19.310Z,17.94
2018-08-31T09:04:46.709Z,18.16
2018-08-31T09:07:16.027Z,18.25
2018-08-31T09:09:43.429Z,18.64
2018-08-31T09:12:10.713Z,18.69
2018-08-31T09:14:37.899Z,18.61
2018-08-31T09:17:05.264Z,18.73
2018-08-31T09:19:32.426Z,18.84
2018-08-31T09:21:59.672Z,18.88
2018-08-31T09:24:27.176Z,19.36
2018-08-31T09:26:54.417Z,19.67
2018-08-31T09:29:21.698Z,20.02
2018-08-31T09:31:48.897Z,19.91
2018-08-31T09:34:16.100Z,19.75
2018-08-31T09:36:43.309Z,19.47
2018-08-31T09:39:10.456Z,19.23
2018-08-31T09:41:38.902Z,18.93
2018-08-31T09:44:06.119Z,18.66
2018-08-31T09:46:33.261Z,18.57
2018-08-31T09:49:00.483Z,18.27
2018-08-31T09:51:27.664Z,18.21
2018-08-31T09:53:54.890Z,18.23
2018-08-31T09:56:22.032Z,18.40
2018-08-31T09:58:49.176Z,18.74
2018-08-31T10:01:23.144Z,18.95
2018-08-31T10:03:50.338Z,19.47
2018-08-31T10:06:17.574Z,19.69
2018-08-31T10:08:44.985Z,20.22
2018-08-31T10:11:12.358Z,20.70
2018-08-31T10:13:39.584Z,21.09
2018-08-31T10:16:06.837Z,21.28
2018-08-31T10:18:34.062Z,21.08
2018-08-31T10:21:01.175Z,20.56
2018-08-31T10:23:28.363Z,20.25
2018-08-31T10:25:55.549Z,20.41
2018-08-31T10:28:23.197Z,21.01
2018-08-31T10:30:50.480Z,21.98
2018-08-31T10:33:17.698Z,22.43
2018-08-31T10:35:47.099Z,22.28
2018-08-31T10:38:14.465Z,21.97
2018-08-31T10:40:41.661Z,22.42
2018-08-31T10:43:09.977Z,22.27
2018-08-31T10:45:37.743Z,21.97
2018-08-31T10:48:05.007Z,21.49
2018-08-31T10:50:32.291Z,21.84
2018-08-31T10:53:00.498Z,21.96
2018-08-31T10:55:27.790Z,21.37
2018-08-31T10:57:55.035Z,21.28
2018-08-31T11:00:22.334Z,21.87
2018-08-31T11:02:49.563Z,22.41
2018-08-31T11:05:16.873Z,22.74
2018-08-31T11:07:44.239Z,22.41
2018-08-31T11:10:11.417Z,22.85
2018-08-31T11:12:38.752Z,23.30
2018-08-31T11:15:06.113Z,23.54
2018-08-31T11:17:33.284Z,22.80
2018-08-31T11:20:00.572Z,22.63
2018-08-31T11:22:28.105Z,22.87
2018-08-31T11:24:55.410Z,22.67
2018-08-31T11:27:22.697Z,22.35
2018-08-31T11:29:49.855Z,22.22
2018-08-31T11:32:17.080Z,21.67
2018-08-31T11:34:44.247Z,21.75
2018-08-31T11:37:11.504Z,22.54
2018-08-31T11:39:38.702Z,22.48
2018-08-31T11:42:05.903Z,22.97
2018-08-31T11:44:33.191Z,22.80
2018-08-31T11:47:00.382Z,22.64
2018-08-31T11:49:27.504Z,22.37
2018-08-31T11:51:54.728Z,22.07
2018-08-31T11:54:22.904Z,21.86
2018-08-31T11:56:50.107Z,21.84
2018-08-31T11:59:17.253Z,21.66
2018-08-31T12:01:44.449Z,21.39
2018-08-31T12:04:12.273Z,21.07
2018-08-31T12:06:39.459Z,21.40
2018-08-31T12:09:07.429Z,21.62
2018-08-31T12:11:34.579Z,21.84
2018-08-31T12:14:01.760Z,21.79
2018-08-31T12:16:29.454Z,21.37
2018-08-31T12:18:56.584Z,21.49
2018-08-31T12:21:24.664Z,21.50
2018-08-31T12:23:51.837Z,21.41
2018-08-31T12:26:18.999Z,20.80
2018-08-31T12:28:46.376Z,20.87
2018-08-31T12:31:13.571Z,20.79
2018-08-31T12:33:44.560Z,20.89
2018-08-31T12:36:11.748Z,20.80
2018-08-31T12:38:38.862Z,20.86
2018-08-31T12:41:06.063Z,20.85
2018-08-31T12:43:33.294Z,20.89
2018-08-31T12:46:00.513Z,21.07
2018-08-31T12:48:27.656Z,21.04
2018-08-31T12:50:54.825Z,21.32
2018-08-31T12:53:24.377Z,21.42
2018-08-31T12:55:51.498Z,21.29
2018-08-31T12:58:18.754Z,21.21
2018-08-31T13:00:45.923Z,21.25
2018-08-31T13:03:13.558Z,21.26
2018-08-31T13:05:40.991Z,21.21
2018-08-31T13:08:08.278Z,21.21
2018-08-31T13:10:35.536Z,21.20
2018-08-31T13:13:02.711Z,21.28
2018-08-31T13:15:29.831Z,21.23
2018-08-31T13:17:58.541Z,21.26
2018-08-31T13:20:26.653Z,21.08
2018-08-31T13:22:58.290Z,21.23
2018-08-31T13:25:25.486Z,21.00
2018-08-31T13:27:52.673Z,21.23
2018-08-31T13:30:19.847Z,21.12
2018-08-31T13:32:47.032Z,21.19
2018-08-31T13:35:14.263Z,21.07
2018-08-31T13:37:41.404Z,21.21
2018-08-31T13:40:08.553Z,21.31
2018-08-31T13:42:36.870Z,21.37
2018-08-31T13:45:04.113Z,21.23
2018-08-31T13:47:31.354Z,21.58
2018-08-31T13:49:58.550Z,21.58
2018-08-31T13:52:25.771Z,21.56
2018-08-31T13:54:53.314Z,21.73
2018-08-31T13:57:20.789Z,21.59
2018-08-31T13:59:48.073Z,21.58
2018-08-31T14:02:15.718Z,21.43
2018-08-31T14:04:42.880Z,21.46
2018-08-31T14:07:11.486Z,21.46
2018-08-31T14:09:38.653Z,21.73
2018-08-31T14:12:06.090Z,21.50
2018-08-31T14:14:33.239Z,21.58
2018-08-31T14:17:00.516Z,21.40
2018-08-31T14:19:27.847Z,21.52
2018-08-31T14:21:55.000Z,21.51
2018-08-31T14:24:22.418Z,21.49
2018-08-31T14:26:49.586Z,21.62
2018-08-31T14:46:33.057Z,21.77
2018-08-31T14:49:00.272Z,21.78
2018-08-31T14:51:27.452Z,21.87
2018-08-31T14:53:54.579Z,21.74
2018-08-31T14:56:22.001Z,21.70
2018-08-31T15:16:04.937Z,21.83
2018-08-31T15:18:32.162Z,21.93
2018-08-31T15:20:59.524Z,21.78
2018-08-31T15:23:27.057Z,21.65
2018-08-31T15:25:54.364Z,21.58
2018-08-31T15:28:21.504Z,21.58
2018-08-31T15:30:48.706Z,21.58
2018-08-31T15:33:16.559Z,21.59
2018-08-31T15:53:00.860Z,21.16
2018-08-31T16:12:45.137Z,20.76
2018-08-31T16:15:13.539Z,20.67
2018-08-31T16:34:56.533Z,21.14
2018-08-31T16:54:40.438Z,20.43
2018-08-31T16:57:07.611Z,20.23
2018-08-31T17:16:50.338Z,19.32
2018-08-31T17:19:17.457Z,19.30
2018-08-31T17:21:45.541Z,19.20
2018-08-31T17:41:42.488Z,18.52
2018-08-31T17:44:09.651Z,18.55
2018-08-31T18:00:59.973Z,17.80
2018-08-31T18:03:27.118Z,17.65
2018-08-31T18:05:54.304Z,17.51
2018-08-31T18:08:21.419Z,17.38
2018-08-31T18:10:48.560Z,17.22
2018-08-31T18:13:15.664Z,17.07
2018-08-31T18:15:42.846Z,16.95
2018-08-31T18:18:11.391Z,16.81
2018-08-31T18:20:41.644Z,16.69
2018-08-31T18:23:12.703Z,16.59
2018-08-31T18:25:39.937Z,16.51
2018-08-31T18:28:07.562Z,16.40
2018-08-31T18:30:35.099Z,16.36
2018-08-31T18:33:02.252Z,16.31
2018-08-31T18:35:29.417Z,16.29
2018-08-31T18:37:56.541Z,16.20
2018-08-31T18:40:23.764Z,16.12
2018-08-31T18:42:51.077Z,16.04
2018-08-31T18:45:18.265Z,16.00
2018-08-31T18:47:45.687Z,15.94
2018-08-31T18:50:12.824Z,15.88
2018-08-31T18:52:42.073Z,15.82
2018-08-31T18:55:09.291Z,15.78
2018-08-31T18:57:36.470Z,15.75
2018-08-31T19:00:03.979Z,15.69
2018-08-31T19:02:31.110Z,15.64
2018-08-31T19:04:58.261Z,15.61
2018-08-31T19:07:25.525Z,15.59
2018-08-31T19:09:52.653Z,15.58
2018-08-31T19:12:19.833Z,15.54
2018-08-31T19:14:46.993Z,15.49
2018-08-31T19:17:15.221Z,15.46
2018-08-31T19:19:42.435Z,15.41
2018-08-31T19:22:09.621Z,15.32
2018-08-31T19:24:36.727Z,15.28
2018-08-31T19:27:03.887Z,15.21
2018-08-31T19:29:31.181Z,15.18
2018-08-31T19:31:58.380Z,15.15
2018-08-31T19:34:25.593Z,15.11
2018-08-31T19:36:52.833Z,15.07
2018-08-31T19:39:20.168Z,15.01
2018-08-31T19:41:47.288Z,14.97
2018-08-31T19:44:15.885Z,14.94
2018-08-31T19:46:43.046Z,14.88
2018-08-31T19:49:10.172Z,14.86
2018-08-31T19:51:37.450Z,14.78
2018-08-31T19:54:04.685Z,14.79
2018-08-31T19:56:37.546Z,14.73
2018-08-31T19:59:05.074Z,14.66
2018-08-31T20:01:33.413Z,14.66
2018-08-31T20:04:01.364Z,14.62
2018-08-31T20:06:28.876Z,14.57
2018-08-31T20:08:56.853Z,14.50
2018-08-31T20:11:24.133Z,14.41
2018-08-31T20:13:51.538Z,14.32
2018-08-31T20:16:18.850Z,14.30
2018-08-31T20:18:46.073Z,14.30
2018-08-31T20:21:14.155Z,14.25
2018-08-31T20:23:43.262Z,14.17
2018-08-31T20:26:10.458Z,14.02
2018-08-31T20:28:38.056Z,13.95
2018-08-31T20:31:05.754Z,13.85
2018-08-31T20:33:33.030Z,13.80
2018-08-31T20:36:00.341Z,13.71
2018-08-31T20:38:27.482Z,13.64
2018-08-31T20:40:54.613Z,13.56
2018-08-31T20:43:21.818Z,13.47
2018-08-31T20:45:48.947Z,13.45
2018-08-31T20:48:16.071Z,13.40
2018-08-31T20:50:44.037Z,13.33
2018-08-31T20:53:12.288Z,13.42
2018-08-31T20:55:39.995Z,13.36
2018-08-31T20:58:07.324Z,13.28
2018-08-31T21:00:34.506Z,13.22
2018-08-31T21:03:02.507Z,13.22
2018-08-31T21:05:29.653Z,13.20
2018-08-31T21:07:56.875Z,13.16
2018-08-31T21:10:24.075Z,13.13
2018-08-31T21:12:53.330Z,13.07
2018-08-31T21:15:20.434Z,13.06
2018-08-31T21:17:48.273Z,13.08
2018-08-31T21:20:15.388Z,13.03
2018-08-31T21:22:42.596Z,12.99
2018-08-31T21:25:09.779Z,12.97
2018-08-31T21:27:37.249Z,12.93
2018-08-31T21:30:04.651Z,12.89
2018-08-31T21:32:31.914Z,12.91
2018-08-31T21:34:59.189Z,12.92
2018-08-31T21:37:26.350Z,12.87
2018-08-31T21:39:53.528Z,12.91
2018-08-31T21:42:20.651Z,12.87
2018-08-31T21:44:47.785Z,12.90
2018-08-31T21:47:15.023Z,12.89
2018-08-31T21:49:42.156Z,12.91
2018-08-31T21:52:09.292Z,12.96
2018-08-31T21:54:36.525Z,12.95
2018-08-31T21:57:03.680Z,12.96
2018-08-31T21:59:30.881Z,12.95
2018-08-31T22:01:58.029Z,12.90
2018-08-31T22:04:25.174Z,13.03
2018-08-31T22:06:52.365Z,12.99
2018-08-31T22:09:19.567Z,13.00
2018-08-31T22:11:46.795Z,13.00
2018-08-31T22:14:13.894Z,13.11
2018-08-31T22:16:41.034Z,13.02
2018-08-31T22:19:08.147Z,13.04
2018-08-31T22:21:35.311Z,13.03
2018-08-31T22:24:02.553Z,13.00
2018-08-31T22:26:29.668Z,12.97
2018-08-31T22:28:56.772Z,12.97
2018-08-31T22:31:23.945Z,12.89
2018-08-31T22:33:51.048Z,12.85
2018-08-31T22:36:18.261Z,12.76
2018-08-31T22:38:45.472Z,12.70
2018-08-31T22:41:12.578Z,12.63
2018-08-31T22:43:45.391Z,12.58
2018-08-31T22:46:12.559Z,12.51
2018-08-31T22:48:39.765Z,12.47
2018-08-31T22:51:06.983Z,12.45
2018-08-31T22:53:34.098Z,12.44
2018-08-31T22:56:01.200Z,12.44
2018-08-31T22:58:28.336Z,12.44
2018-08-31T23:00:55.510Z,12.43
2018-08-31T23:03:22.599Z,12.44
2018-08-31T23:05:49.763Z,12.63
2018-08-31T23:08:16.906Z,12.63
2018-08-31T23:10:44.016Z,12.59
2018-08-31T23:13:11.262Z,12.64
2018-08-31T23:15:38.385Z,12.66
2018-08-31T23:18:05.501Z,12.87
2018-08-31T23:20:32.676Z,12.82
2018-08-31T23:24:08.077Z,12.76
2018-08-31T23:26:35.300Z,12.69
2018-08-31T23:29:02.429Z,12.70
2018-08-31T23:31:29.549Z,12.70
2018-08-31T23:33:56.703Z,12.69
2018-08-31T23:36:23.826Z,12.75
2018-08-31T23:38:51.018Z,12.76
2018-08-31T23:41:18.442Z,12.79
2018-08-31T23:43:45.563Z,12.79
2018-08-31T23:46:12.683Z,12.73
2018-08-31T23:48:39.860Z,12.78
2018-08-31T23:51:07.066Z,12.85
2018-08-31T23:53:34.192Z,12.76
2018-08-31T23:56:01.362Z,12.72
2018-08-31T23:58:28.485Z,12.75
